Impacts METAR Board
IDs:

KELA - Eagle Lake Arpt, TX, US

Updated at: 0900 UTC 13 Aug 2022
Potential Impact None Slight Moderate High
Time 12/21Z 12/22Z 12/23Z 13/00Z 13/01Z 13/02Z 13/03Z 13/04Z 13/05Z 13/06Z 13/07Z 13/08Z 13/09Z
Temp79 81 81 80 80 79 78 78 77 77 76 76 76
Dewpt76 76 77 76 76 77 77 76 76 75 75 75 75
Altim29.96 29.92 29.95 29.92 29.93 29.94 29.96 29.98 29.97 29.96 29.96 29.97 29.96
VIS10 10 10 10 10 10 10 10 10 10 5 7 10
CIG75 -- -- -- -- -- -- -- -- -- -- -- --
CoverBKNCLRSCTCLRCLRCLRCLRCLRCLRCLRCLRCLRCLR
FltCatVFRVFRVFRVFRVFRVFRVFRVFRVFRVFRMVFRVFRVFR
WXVCTS -DZTS----------------BR----
WDir2102005000000000360
WSpd7 5 3 0 0 0 0 0 0 0 0 3
WGst-- -- -- -- -- -- -- -- -- -- -- -- --
Raw hourly METARs
KELA 122055Z AUTO 21007KT 10SM -VCTSDZ SCT050 BKN075 BKN100 26/25 A2996 RMK AO2 LTG DSNT S AND SW P0031 60031 T02630246
KELA 122155Z AUTO 20005KT 10SM TS CLR 27/25 A2992 RMK AO2 LTG DSNT ALQS T02710247
KELA 122255Z AUTO 05003KT 10SM SCT050 27/25 A2995 RMK AO2 LTG DSNT N THRU SE T02710249
KELA 122355Z AUTO 00000KT 10SM CLR 27/25 A2992 RMK AO2 60031 T02650245 10363 20261
KELA 130055Z AUTO 00000KT 10SM CLR 27/25 A2993 RMK AO2 T02650246
KELA 130155Z AUTO 00000KT 10SM CLR 26/25 A2994 RMK AO2 T02600248
KELA 130255Z AUTO 00000KT 10SM CLR 26/25 A2996 RMK AO2 T02570248
KELA 130355Z AUTO 00000KT 10SM CLR 26/25 A2998 RMK AO2 T02550245
KELA 130455Z AUTO 00000KT 10SM CLR 25/25 A2997 RMK AO2 T02520245
KELA 130555Z AUTO 00000KT 10SM CLR 25/24 A2996 RMK AO2 T02480240 10267 20247 403630247
KELA 130655Z AUTO 00000KT 5SM BR CLR 25/24 A2996 RMK AO2 T02460240
KELA 130755Z AUTO 7SM CLR 25/24 A2997 RMK AO2 T02460238
KELA 130855Z AUTO 36003KT 10SM CLR 25/24 A2996 RMK AO2 LTG DSNT S T02450237